Time;durP1;ratioP1;P1;durP2;ratioP2;P2;SDS_P1;SDS_P2;PMS_P1;PMS_P2;Temp;Humidity;BMP_temperature;BMP_pressure;BME280_temperature;BME280_humidity;BME280_pressure;Samples;Min_cycle;Max_cycle;Signal;HPM_P1;HPM_P2
2022/06/16 00:00:33;;;;;;;6.57;2.80;;;13.60;99.90;;;;;;5058889;28;20098;-70
2022/06/16 00:03:00;;;;;;;5.85;2.92;;;13.60;99.90;;;;;;5058133;28;20079;-70
2022/06/16 00:05:34;;;;;;;8.40;2.50;;;13.60;99.90;;;;;;5057216;28;20510;-69
2022/06/16 00:08:01;;;;;;;6.38;2.90;;;13.60;99.90;;;;;;5057290;28;20051;-71
2022/06/16 00:10:28;;;;;;;8.63;3.05;;;13.60;99.90;;;;;;5041166;28;20099;-71
2022/06/16 00:12:55;;;;;;;6.00;3.28;;;13.60;99.90;;;;;;5037287;28;20059;-71
2022/06/16 00:15:25;;;;;;;4.95;2.45;;;13.60;99.90;;;;;;5072935;28;20053;-71
2022/06/16 00:17:53;;;;;;;8.30;3.13;;;13.60;99.90;;;;;;5075357;28;20049;-71
2022/06/16 00:20:20;;;;;;;8.80;3.17;;;13.60;99.90;;;;;;5063293;28;20095;-71
2022/06/16 00:22:47;;;;;;;6.55;3.05;;;13.60;99.90;;;;;;5037790;28;20049;-71
2022/06/16 00:25:15;;;;;;;4.95;2.50;;;13.70;99.90;;;;;;5037395;28;20053;-70
2022/06/16 00:27:42;;;;;;;7.47;2.97;;;13.70;99.90;;;;;;5036873;28;20496;-71
2022/06/16 00:30:11;;;;;;;7.00;2.90;;;13.70;99.90;;;;;;5055089;28;20102;-71
2022/06/16 00:32:38;;;;;;;6.30;2.78;;;13.70;99.90;;;;;;5037311;28;20053;-71
2022/06/16 00:35:07;;;;;;;4.93;2.78;;;13.70;99.90;;;;;;5054166;28;20558;-71
2022/06/16 00:37:35;;;;;;;5.00;2.90;;;13.70;99.90;;;;;;5037174;28;20095;-70
2022/06/16 00:40:01;;;;;;;4.47;2.83;;;13.60;99.90;;;;;;5036873;28;20582;-71
2022/06/16 00:42:28;;;;;;;15.65;3.25;;;13.60;99.90;;;;;;5036174;28;20060;-71
2022/06/16 00:44:57;;;;;;;4.82;2.70;;;13.60;99.90;;;;;;5036922;28;20048;-70
2022/06/16 00:47:27;;;;;;;5.07;2.55;;;13.60;99.90;;;;;;5057179;28;20124;-69
2022/06/16 00:49:58;;;;;;;4.97;2.92;;;13.60;99.90;;;;;;5074770;28;20071;-68
2022/06/16 00:52:29;;;;;;;4.72;2.95;;;13.50;99.90;;;;;;5074662;28;20557;-69
2022/06/16 00:55:03;;;;;;;6.03;3.38;;;13.50;99.90;;;;;;5056398;28;20093;-69
2022/06/16 00:57:34;;;;;;;5.97;3.40;;;13.50;99.90;;;;;;5074397;28;20135;-69
2022/06/16 01:00:04;;;;;;;4.85;2.65;;;13.40;99.90;;;;;;5074697;28;20080;-70
2022/06/16 01:02:31;;;;;;;5.00;2.88;;;13.40;99.90;;;;;;5049347;28;20128;-70
2022/06/16 01:04:57;;;;;;;15.95;3.55;;;13.40;99.90;;;;;;5036934;28;20045;-70
2022/06/16 01:07:29;;;;;;;9.73;3.05;;;13.40;99.90;;;;;;5036663;28;20504;-70
2022/06/16 01:09:57;;;;;;;5.88;2.65;;;13.30;99.90;;;;;;5035811;28;20098;-70
2022/06/16 01:15:54;;;;;;;6.05;3.03;;;13.30;99.90;;;;;;5036368;28;20520;-69
2022/06/16 01:18:29;;;;;;;7.63;3.58;;;13.20;99.90;;;;;;5068955;28;20059;-70
2022/06/16 01:21:04;;;;;;;5.35;2.78;;;13.10;99.90;;;;;;5074212;28;20053;-71
2022/06/16 01:24:03;;;;;;;5.60;2.70;;;13.10;99.90;;;;;;5055740;28;20492;-70
2022/06/16 01:27:15;;;;;;;7.13;3.22;;;13.10;99.90;;;;;;5056383;28;20446;-69
2022/06/16 01:29:53;;;;;;;3.65;2.38;;;13.20;99.90;;;;;;5071592;28;20045;-69
2022/06/16 01:32:28;;;;;;;4.53;2.67;;;13.20;99.90;;;;;;5055878;28;20048;-70
2022/06/16 01:35:04;;;;;;;7.03;2.75;;;13.20;99.90;;;;;;5055953;28;20060;-71
2022/06/16 01:37:36;;;;;;;6.18;3.10;;;13.20;99.90;;;;;;5073169;28;20434;-70
2022/06/16 01:40:10;;;;;;;7.40;2.72;;;13.20;99.90;;;;;;5073715;28;20157;-70
2022/06/16 01:42:42;;;;;;;5.07;3.00;;;13.20;99.90;;;;;;5052674;28;20134;-70
2022/06/16 01:45:14;;;;;;;8.07;3.03;;;13.20;99.90;;;;;;5039758;28;20052;-70
2022/06/16 01:47:46;;;;;;;4.63;2.50;;;13.20;99.90;;;;;;5033929;28;20111;-69
2022/06/16 01:50:19;;;;;;;6.88;3.03;;;13.30;99.90;;;;;;5032557;28;20057;-69
2022/06/16 01:52:50;;;;;;;5.55;2.65;;;13.30;99.90;;;;;;5032733;28;20119;-69
2022/06/16 01:55:20;;;;;;;8.32;3.10;;;13.30;99.90;;;;;;5033897;28;20363;-70
2022/06/16 01:57:51;;;;;;;8.15;3.35;;;13.40;99.90;;;;;;5032957;28;20460;-70
2022/06/16 02:00:22;;;;;;;4.70;2.95;;;13.40;99.90;;;;;;5049464;28;20049;-69
2022/06/16 02:02:52;;;;;;;5.05;2.50;;;13.40;99.90;;;;;;5053500;28;20056;-69
2022/06/16 02:05:25;;;;;;;9.30;2.95;;;13.50;99.90;;;;;;5053071;28;20409;-70
2022/06/16 02:07:56;;;;;;;5.38;3.20;;;13.50;99.90;;;;;;5052588;28;20061;-69
2022/06/16 02:10:27;;;;;;;6.80;2.58;;;13.50;99.90;;;;;;5052526;28;20095;-71
2022/06/16 02:12:57;;;;;;;6.82;2.65;;;13.50;99.90;;;;;;5039166;28;20559;-70
2022/06/16 02:15:37;;;;;;;9.27;3.00;;;13.60;99.90;;;;;;5032778;28;20387;-70
2022/06/16 02:18:08;;;;;;;6.13;2.93;;;13.60;99.90;;;;;;5033359;28;20054;-72
2022/06/16 02:20:41;;;;;;;6.03;2.92;;;13.60;99.90;;;;;;5031221;28;20288;-69
2022/06/16 02:23:08;;;;;;;5.72;2.97;;;13.60;99.90;;;;;;5031157;28;20053;-70
2022/06/16 02:25:35;;;;;;;6.75;2.90;;;13.60;99.90;;;;;;5032121;28;20057;-71
2022/06/16 02:28:02;;;;;;;6.70;3.53;;;13.60;99.90;;;;;;5031397;28;20103;-69
2022/06/16 02:30:35;;;;;;;7.72;2.72;;;13.60;99.90;;;;;;5032122;28;20049;-70
2022/06/16 02:33:11;;;;;;;10.00;3.13;;;13.60;99.90;;;;;;5031297;28;20061;-69
2022/06/16 02:35:45;;;;;;;5.75;3.17;;;13.50;99.90;;;;;;5031469;28;20057;-69
2022/06/16 02:38:28;;;;;;;5.28;2.65;;;13.50;99.90;;;;;;5033022;28;20041;-69
2022/06/16 02:41:14;;;;;;;4.35;2.53;;;13.40;99.90;;;;;;5031306;28;20053;-70
2022/06/16 02:43:50;;;;;;;6.60;3.05;;;13.40;99.90;;;;;;5050542;28;20057;-70
2022/06/16 02:46:29;;;;;;;9.43;2.95;;;13.40;99.90;;;;;;5034843;28;20055;-70
2022/06/16 02:49:02;;;;;;;5.13;2.38;;;13.30;99.90;;;;;;5034097;28;20095;-70
2022/06/16 02:51:36;;;;;;;5.85;2.80;;;13.30;99.90;;;;;;5053167;28;20056;-70
2022/06/16 02:54:10;;;;;;;6.85;3.65;;;13.20;99.90;;;;;;5034835;28;20059;-71
2022/06/16 02:56:44;;;;;;;7.15;2.58;;;13.20;99.90;;;;;;5060150;28;20123;-70
2022/06/16 02:59:18;;;;;;;6.80;3.33;;;13.20;99.90;;;;;;5054902;28;20547;-71
2022/06/16 03:01:47;;;;;;;4.22;2.63;;;13.10;99.90;;;;;;5071813;28;20505;-70
2022/06/16 03:04:16;;;;;;;4.63;2.55;;;13.10;99.90;;;;;;5054835;28;20056;-70
2022/06/16 03:06:43;;;;;;;6.07;2.50;;;13.10;99.90;;;;;;5054483;28;20489;-68
2022/06/16 03:09:10;;;;;;;6.85;2.80;;;13.00;99.90;;;;;;5069175;28;20056;-69
2022/06/16 03:11:38;;;;;;;5.47;3.13;;;13.00;99.90;;;;;;5034761;28;20056;-69
2022/06/16 03:14:05;;;;;;;6.15;2.63;;;13.00;99.90;;;;;;5052449;28;20056;-69
2022/06/16 03:16:32;;;;;;;7.55;3.17;;;13.00;99.90;;;;;;5034170;28;20106;-70
2022/06/16 03:19:00;;;;;;;6.60;2.90;;;13.00;99.90;;;;;;5035058;28;20555;-68
2022/06/16 03:21:27;;;;;;;11.88;4.10;;;13.00;99.90;;;;;;5034973;28;20049;-69
2022/06/16 03:23:54;;;;;;;5.05;2.85;;;13.00;99.90;;;;;;5035346;28;20099;-69
2022/06/16 03:26:21;;;;;;;6.15;3.13;;;13.00;99.90;;;;;;5054682;28;20092;-69
2022/06/16 03:28:49;;;;;;;4.38;2.70;;;13.00;99.90;;;;;;5070829;28;20106;-70
2022/06/16 03:31:16;;;;;;;6.72;3.13;;;13.00;99.90;;;;;;5071522;28;20131;-69
2022/06/16 03:33:44;;;;;;;12.77;3.55;;;13.10;99.90;;;;;;5054366;28;20500;-69
2022/06/16 03:36:12;;;;;;;8.70;3.47;;;13.10;99.90;;;;;;5073321;28;20084;-70
2022/06/16 03:38:42;;;;;;;5.90;3.28;;;13.10;99.90;;;;;;5073533;28;20090;-70
2022/06/16 03:41:09;;;;;;;7.97;3.13;;;13.20;99.90;;;;;;5056381;28;20095;-70
2022/06/16 03:43:36;;;;;;;7.82;3.28;;;13.20;99.90;;;;;;5055289;28;20057;-70
2022/06/16 03:46:04;;;;;;;6.95;3.30;;;13.20;99.90;;;;;;5038211;28;20049;-69
2022/06/16 03:48:31;;;;;;;4.85;2.60;;;13.30;99.90;;;;;;5056161;28;20100;-70
2022/06/16 03:50:58;;;;;;;6.80;2.97;;;13.30;99.90;;;;;;5055378;28;20438;-70
2022/06/16 03:53:26;;;;;;;5.35;3.45;;;13.30;99.90;;;;;;5039816;28;20068;-70
2022/06/16 03:55:53;;;;;;;5.30;3.22;;;13.30;99.90;;;;;;5075938;28;20492;-70
2022/06/16 03:58:20;;;;;;;6.07;3.35;;;13.40;99.90;;;;;;5074812;28;20056;-71
2022/06/16 04:00:47;;;;;;;7.00;3.88;;;13.40;99.90;;;;;;5057974;28;20048;-70
2022/06/16 04:05:58;;;;;;;7.60;2.83;;;13.50;99.90;;;;;;5057352;28;20049;-70
2022/06/16 04:08:26;;;;;;;7.05;3.75;;;13.50;99.90;;;;;;5057977;28;20049;-70
2022/06/16 04:10:53;;;;;;;5.18;2.78;;;13.50;99.90;;;;;;5055405;28;20052;-71
2022/06/16 04:13:20;;;;;;;7.88;3.75;;;13.60;99.90;;;;;;5054480;28;20056;-70
2022/06/16 04:15:47;;;;;;;6.22;3.65;;;13.70;99.90;;;;;;5037666;28;20052;-70
2022/06/16 04:18:14;;;;;;;8.25;3.67;;;13.70;99.90;;;;;;5037678;28;20463;-70
2022/06/16 04:20:41;;;;;;;6.60;4.13;;;13.80;99.90;;;;;;5036912;28;20443;-69
2022/06/16 04:23:10;;;;;;;6.97;3.88;;;13.90;99.90;;;;;;5055325;28;20091;-69
2022/06/16 04:25:38;;;;;;;8.05;3.53;;;13.90;99.90;;;;;;5036890;28;20557;-69
2022/06/16 04:28:07;;;;;;;7.70;4.50;;;14.00;99.90;;;;;;5037117;28;20049;-70
2022/06/16 04:30:35;;;;;;;7.30;4.00;;;14.00;99.90;;;;;;5037552;28;20049;-70
2022/06/16 04:33:02;;;;;;;7.68;3.72;;;14.10;99.90;;;;;;5062306;28;20500;-70
2022/06/16 04:35:29;;;;;;;7.85;3.85;;;14.20;99.90;;;;;;5071145;28;20044;-69
2022/06/16 04:37:56;;;;;;;5.15;3.40;;;14.30;99.90;;;;;;5072280;28;20049;-70
2022/06/16 04:40:24;;;;;;;8.68;3.55;;;14.40;99.90;;;;;;5071941;28;20507;-69
2022/06/16 04:42:52;;;;;;;5.75;3.72;;;14.50;99.90;;;;;;5051290;28;20064;-70
2022/06/16 04:45:19;;;;;;;6.05;3.67;;;14.60;99.90;;;;;;5053183;28;20413;-70
2022/06/16 04:47:46;;;;;;;6.88;3.88;;;14.80;99.90;;;;;;5050805;28;20055;-70
2022/06/16 04:50:18;;;;;;;8.65;4.05;;;14.90;99.90;;;;;;5051291;28;20040;-70
2022/06/16 04:52:45;;;;;;;8.68;4.18;;;15.10;99.90;;;;;;5052107;28;20052;-69
2022/06/16 04:55:12;;;;;;;7.57;3.35;;;15.20;99.90;;;;;;5052110;28;20045;-70
2022/06/16 04:57:40;;;;;;;7.43;3.85;;;15.40;99.90;;;;;;5053301;28;20056;-71
2022/06/16 05:00:12;;;;;;;8.15;3.47;;;15.70;99.90;;;;;;5051492;28;20053;-70
2022/06/16 05:02:39;;;;;;;8.43;3.63;;;15.90;99.90;;;;;;5050703;28;20049;-71
2022/06/16 05:05:07;;;;;;;6.28;3.88;;;16.20;99.90;;;;;;5051525;28;20107;-71
2022/06/16 05:07:35;;;;;;;6.57;3.85;;;16.40;99.90;;;;;;5052159;28;20052;-71
2022/06/16 05:10:02;;;;;;;17.10;3.60;;;16.50;99.90;;;;;;5051547;28;20554;-72
2022/06/16 05:12:29;;;;;;;7.93;3.65;;;16.70;99.90;;;;;;5052261;28;20051;-71
2022/06/16 05:14:56;;;;;;;5.82;3.30;;;16.80;99.90;;;;;;5051907;28;20448;-71
2022/06/16 05:17:24;;;;;;;7.63;4.10;;;16.90;99.90;;;;;;5052496;28;20041;-71
2022/06/16 05:19:51;;;;;;;6.47;2.95;;;17.00;99.90;;;;;;5049839;28;20497;-69
2022/06/16 05:22:18;;;;;;;9.50;3.47;;;17.00;99.90;;;;;;5050300;28;20044;-70
2022/06/16 05:24:45;;;;;;;6.22;3.97;;;17.10;99.90;;;;;;5051771;28;20126;-70
2022/06/16 05:27:13;;;;;;;5.20;3.10;;;17.20;99.90;;;;;;5046943;28;20055;-69
2022/06/16 05:29:40;;;;;;;7.15;3.30;;;17.20;99.90;;;;;;5049408;28;20042;-71
2022/06/16 05:32:07;;;;;;;5.78;3.25;;;17.10;99.90;;;;;;5051522;28;20063;-71
2022/06/16 05:34:37;;;;;;;7.15;3.90;;;17.10;99.90;;;;;;5048874;28;20567;-70
2022/06/16 05:37:04;;;;;;;7.63;3.78;;;17.20;99.90;;;;;;5052318;28;20102;-69
2022/06/16 05:39:31;;;;;;;5.80;3.20;;;17.20;99.90;;;;;;5050381;28;20049;-69
2022/06/16 05:41:58;;;;;;;8.45;3.35;;;17.30;99.90;;;;;;5048341;28;20064;-70
2022/06/16 05:44:25;;;;;;;7.22;3.53;;;17.30;99.90;;;;;;5046923;28;20107;-70
2022/06/16 05:46:52;;;;;;;6.40;3.10;;;17.40;99.90;;;;;;5038073;28;20061;-70
2022/06/16 05:49:21;;;;;;;5.32;3.00;;;17.40;99.90;;;;;;5040948;28;20056;-71
2022/06/16 05:51:50;;;;;;;5.22;2.63;;;17.50;99.90;;;;;;5049998;28;20108;-71
2022/06/16 05:54:16;;;;;;;6.90;2.97;;;17.70;99.90;;;;;;5047823;28;20077;-70
2022/06/16 05:56:46;;;;;;;6.32;2.88;;;17.90;99.90;;;;;;5048874;28;20117;-70
2022/06/16 05:59:16;;;;;;;9.23;2.45;;;18.10;99.90;;;;;;5047975;28;20049;-71
2022/06/16 06:01:43;;;;;;;6.43;2.70;;;18.30;99.90;;;;;;5047863;28;20151;-70
2022/06/16 06:04:10;;;;;;;7.55;2.75;;;18.40;99.90;;;;;;5050043;28;20460;-71
2022/06/16 06:06:37;;;;;;;5.15;2.10;;;18.60;99.90;;;;;;5049468;28;20056;-70
2022/06/16 06:17:22;;;;;;;4.75;1.45;;;19.10;99.90;;;;;;5051740;28;20127;-70
2022/06/16 06:19:51;;;;;;;;;;;19.30;99.90;;;;;;5051981;28;20041;-70
2022/06/16 06:22:23;;;;;;;4.18;1.38;;;19.40;99.90;;;;;;5050449;28;20274;-70
2022/06/16 06:24:53;;;;;;;5.68;1.60;;;19.60;99.90;;;;;;5041154;28;20060;-70
2022/06/16 06:27:24;;;;;;;5.95;2.45;;;19.70;99.90;;;;;;5048474;28;20044;-70
2022/06/16 06:29:51;;;;;;;4.47;2.55;;;19.90;99.90;;;;;;5049617;28;20041;-71
2022/06/16 06:32:20;;;;;;;5.35;1.42;;;20.00;99.90;;;;;;5049664;28;20114;-70
2022/06/16 06:34:47;;;;;;;4.78;1.88;;;20.20;99.90;;;;;;5050432;28;20095;-71
2022/06/16 06:37:17;;;;;;;5.32;1.25;;;20.30;99.90;;;;;;5050320;28;20056;-71
2022/06/16 06:39:44;;;;;;;3.97;1.30;;;20.30;99.90;;;;;;5049678;28;20149;-71
2022/06/16 06:42:16;;;;;;;2.97;1.27;;;20.50;99.90;;;;;;5047306;28;20535;-70
2022/06/16 06:44:43;;;;;;;3.67;1.25;;;20.60;99.90;;;;;;5050437;28;20045;-70
2022/06/16 06:47:16;;;;;;;4.53;1.13;;;20.80;99.90;;;;;;5048953;28;20106;-70
2022/06/16 06:49:43;;;;;;;2.40;1.10;;;20.80;99.90;;;;;;5048885;28;20040;-71
2022/06/16 06:52:10;;;;;;;4.85;1.23;;;21.00;99.90;;;;;;5041949;28;20045;-70
2022/06/16 06:54:36;;;;;;;4.25;1.52;;;21.10;99.90;;;;;;5001679;28;20052;-71
2022/06/16 06:57:04;;;;;;;3.78;1.27;;;21.30;99.90;;;;;;5038980;28;20053;-72
2022/06/16 06:59:32;;;;;;;5.68;2.05;;;21.50;99.50;;;;;;5056531;28;20049;-70
2022/06/16 07:01:59;;;;;;;4.18;1.40;;;21.70;99.00;;;;;;5070955;28;20036;-72
2022/06/16 07:04:26;;;;;;;3.88;1.30;;;22.00;98.90;;;;;;5058916;28;20102;-71
2022/06/16 07:06:59;;;;;;;2.40;1.02;;;22.20;98.40;;;;;;5059110;28;20095;-71
2022/06/16 07:09:26;;;;;;;2.92;1.10;;;22.40;94.80;;;;;;5056064;28;20045;-69
2022/06/16 07:11:53;;;;;;;5.22;1.80;;;22.50;95.90;;;;;;5052182;28;20110;-71
2022/06/16 07:14:20;;;;;;;5.13;1.40;;;22.70;95.50;;;;;;5052662;28;20059;-71
2022/06/16 07:16:49;;;;;;;5.78;1.20;;;22.90;95.50;;;;;;5052651;28;20519;-71
2022/06/16 07:19:16;;;;;;;3.65;1.08;;;23.30;95.20;;;;;;5053106;28;20481;-72
2022/06/16 07:21:43;;;;;;;3.60;1.23;;;23.60;94.70;;;;;;5050776;28;20057;-71
2022/06/16 07:24:10;;;;;;;2.25;0.90;;;23.90;93.80;;;;;;5052694;28;20053;-71
2022/06/16 07:26:37;;;;;;;2.97;1.02;;;24.10;93.40;;;;;;5052753;28;20048;-70
2022/06/16 07:29:04;;;;;;;4.63;1.25;;;24.20;92.30;;;;;;5051847;28;20071;-71
2022/06/16 07:31:31;;;;;;;3.45;1.05;;;24.40;91.60;;;;;;5052847;28;20045;-71
2022/06/16 07:33:59;;;;;;;3.50;1.00;;;24.50;90.90;;;;;;5051748;28;20056;-72
2022/06/16 07:36:26;;;;;;;4.97;1.40;;;24.60;90.50;;;;;;5051003;28;20094;-71
2022/06/16 07:38:53;;;;;;;4.28;1.20;;;24.90;90.60;;;;;;5052367;28;20052;-72
2022/06/16 07:41:34;;;;;;;3.30;1.48;;;24.90;90.20;;;;;;5053438;28;20041;-71
2022/06/16 07:44:02;;;;;;;2.90;1.23;;;24.60;88.80;;;;;;5052412;28;20530;-71
2022/06/16 07:46:29;;;;;;;3.20;1.42;;;24.30;88.70;;;;;;5048530;28;20052;-72
2022/06/16 07:48:56;;;;;;;4.47;1.40;;;24.60;89.30;;;;;;5049566;28;20049;-72
2022/06/16 07:51:25;;;;;;;3.13;1.50;;;25.00;87.80;;;;;;5054309;28;20045;-70
2022/06/16 07:53:52;;;;;;;3.20;1.25;;;25.10;86.10;;;;;;5052630;28;20056;-71
2022/06/16 07:56:20;;;;;;;3.05;1.15;;;25.20;84.90;;;;;;5054379;28;20106;-71
2022/06/16 07:58:47;;;;;;;2.80;1.20;;;25.20;84.70;;;;;;5051701;28;20406;-72
2022/06/16 08:01:14;;;;;;;3.88;1.52;;;25.40;83.60;;;;;;5049678;28;20053;-72
2022/06/16 08:03:42;;;;;;;2.97;1.35;;;25.50;83.30;;;;;;5052168;28;20106;-70
2022/06/16 08:06:10;;;;;;;6.20;1.33;;;25.80;83.10;;;;;;5052789;28;20045;-72
2022/06/16 08:08:39;;;;;;;9.60;1.83;;;26.30;83.00;;;;;;5048907;28;20041;-72
2022/06/16 08:12:03;;;;;;;15.13;2.35;;;26.20;81.00;;;;;;5052111;28;20110;-72
2022/06/16 08:13:54;;;;;;;23.10;3.40;;;26.60;80.00;;;;;;5052035;28;20554;-72
2022/06/16 08:16:21;;;;;;;8.10;1.48;;;27.10;81.10;;;;;;5050418;28;20090;-77
2022/06/16 08:18:48;;;;;;;9.55;1.83;;;27.00;79.70;;;;;;5052981;28;20091;-80
2022/06/16 08:21:15;;;;;;;36.20;4.65;;;27.30;78.70;;;;;;5051867;28;20045;-80
2022/06/16 08:23:46;;;;;;;46.22;4.18;;;27.40;77.10;;;;;;5052220;28;20053;-80
2022/06/16 08:26:16;;;;;;;16.70;2.10;;;27.90;76.50;;;;;;5051025;28;20056;-79
2022/06/16 08:28:42;;;;;;;;;;;28.10;76.00;;;;;;5053962;28;20036;-80
2022/06/16 08:31:10;;;;;;;23.55;2.63;;;27.80;70.00;;;;;;5053271;28;19921;-80
2022/06/16 08:33:37;;;;;;;93.22;8.07;;;28.20;74.00;;;;;;5050126;28;20044;-80
2022/06/16 08:36:04;;;;;;;118.40;11.85;;;28.50;73.90;;;;;;5051849;28;20052;-81
2022/06/16 08:38:31;;;;;;;10.73;2.13;;;28.80;73.30;;;;;;5050808;28;20053;-81
2022/06/16 08:41:13;;;;;;;9.93;2.10;;;29.10;73.20;;;;;;5051791;28;20049;-80
2022/06/16 08:43:44;;;;;;;11.50;2.75;;;29.30;70.60;;;;;;5052112;28;20053;-80
2022/06/16 08:46:16;;;;;;;17.75;4.30;;;29.00;70.00;;;;;;5051426;28;20052;-80
2022/06/16 08:48:51;;;;;;;10.38;2.40;;;29.30;70.20;;;;;;5053372;28;20049;-80
2022/06/16 08:51:29;;;;;;;35.00;5.13;;;29.50;69.60;;;;;;5050447;28;20539;-81
2022/06/16 08:54:18;;;;;;;85.38;9.57;;;29.30;67.40;;;;;;5053148;28;20129;-80
2022/06/16 08:56:54;;;;;;;5.85;1.73;;;29.20;69.10;;;;;;5050586;28;20057;-79
2022/06/16 08:59:31;;;;;;;8.27;1.95;;;29.60;68.30;;;;;;5051575;28;20052;-81
2022/06/16 09:02:05;;;;;;;17.15;2.95;;;29.80;68.30;;;;;;5050455;28;20122;-81
2022/06/16 09:04:35;;;;;;;4.57;2.00;;;29.90;68.20;;;;;;5052141;28;20037;-79
2022/06/16 09:07:10;;;;;;;16.63;3.50;;;30.20;67.20;;;;;;5051971;28;20102;-81
2022/06/16 09:12:47;;;;;;;8.55;2.00;;;30.10;66.20;;;;;;5040357;28;20064;-81
2022/06/16 09:15:23;;;;;;;55.28;6.25;;;29.90;65.50;;;;;;5050708;28;20063;-82
2022/06/16 09:18:04;;;;;;;10.10;2.28;;;29.80;66.90;;;;;;5052027;28;20049;-80
2022/06/16 09:20:38;;;;;;;34.10;4.53;;;29.40;66.60;;;;;;5052746;28;20045;-80
2022/06/16 09:23:36;;;;;;;9.35;2.55;;;29.00;66.60;;;;;;5050224;28;20057;-80
2022/06/16 09:26:18;;;;;;;7.20;2.05;;;28.50;66.90;;;;;;5050033;28;20107;-80
2022/06/16 09:28:52;;;;;;;8.95;2.05;;;28.80;67.20;;;;;;5045570;28;20505;-80
2022/06/16 09:31:24;;;;;;;8.68;2.50;;;29.30;67.50;;;;;;5052738;28;20094;-79
2022/06/16 09:33:57;;;;;;;61.85;7.65;;;29.40;66.90;;;;;;5046422;28;20053;-80
2022/06/16 09:36:28;;;;;;;6.25;1.83;;;29.40;67.40;;;;;;5049451;28;20110;-80
2022/06/16 09:39:00;;;;;;;11.23;2.38;;;29.80;66.60;;;;;;5049370;28;20106;-80
2022/06/16 09:44:27;;;;;;;13.77;3.47;;;30.10;66.30;;;;;;5050276;28;20401;-81
2022/06/16 09:46:58;;;;;;;12.05;2.65;;;30.50;66.10;;;;;;5049614;28;20488;-81
2022/06/16 09:49:30;;;;;;;6.60;2.00;;;30.60;65.70;;;;;;5051673;28;20086;-80
2022/06/16 09:52:01;;;;;;;16.85;3.90;;;31.00;64.90;;;;;;5048004;28;20095;-79
2022/06/16 09:54:33;;;;;;;6.20;2.08;;;31.30;64.10;;;;;;5050769;28;20489;-80
2022/06/16 09:57:04;;;;;;;5.25;2.10;;;31.00;61.90;;;;;;5049710;28;20106;-80
2022/06/16 09:59:35;;;;;;;4.28;2.15;;;31.10;62.70;;;;;;5052128;28;20053;-79
2022/06/16 10:02:11;;;;;;;7.60;1.90;;;31.00;62.40;;;;;;5050990;28;20044;-80
2022/06/16 10:04:38;;;;;;;4.63;2.08;;;31.20;63.40;;;;;;5051168;28;20056;-80
2022/06/16 10:07:23;;;;;;;7.50;2.33;;;30.90;63.20;;;;;;5051221;28;20049;-81
2022/06/16 10:09:56;;;;;;;3.47;1.75;;;31.00;62.40;;;;;;5051041;28;20052;-81
2022/06/16 10:12:31;;;;;;;4.72;2.38;;;31.20;63.30;;;;;;5050861;28;20045;-80
2022/06/16 10:15:05;;;;;;;4.50;2.00;;;31.40;62.70;;;;;;5051383;28;20394;-80
2022/06/16 10:17:34;;;;;;;4.35;2.55;;;31.50;61.90;;;;;;5044760;28;20044;-80
2022/06/16 10:20:02;;;;;;;3.38;1.80;;;31.50;61.50;;;;;;5050798;28;20497;-80
2022/06/16 10:22:31;;;;;;;3.30;2.03;;;31.20;61.60;;;;;;5051060;28;20507;-80
2022/06/16 10:25:03;;;;;;;;;;;31.60;62.10;;;;;;5049813;28;20053;-80
2022/06/16 10:27:38;;;;;;;7.25;2.13;;;31.50;60.40;;;;;;5049964;28;19921;-80
2022/06/16 10:30:18;;;;;;;6.20;1.50;;;31.60;61.80;;;;;;5049624;28;20056;-79
2022/06/16 10:32:46;;;;;;;8.35;2.03;;;31.80;61.60;;;;;;5050058;28;20048;-80
2022/06/16 10:35:18;;;;;;;11.30;2.85;;;32.00;62.00;;;;;;5051540;28;20045;-81
2022/06/16 10:37:48;;;;;;;10.65;2.85;;;32.20;61.30;;;;;;5051706;28;20507;-80
2022/06/16 10:40:17;;;;;;;3.88;2.05;;;32.20;61.40;;;;;;5051642;28;20118;-81
2022/06/16 10:42:47;;;;;;;14.65;3.53;;;32.10;60.00;;;;;;5062284;28;20581;-83
2022/06/16 10:45:22;;;;;;;7.53;2.03;;;32.40;58.80;;;;;;5073893;28;20055;-82
2022/06/16 10:47:53;;;;;;;11.23;2.63;;;32.20;58.80;;;;;;5065330;28;20114;-82
2022/06/16 10:50:24;;;;;;;5.20;1.98;;;32.20;59.30;;;;;;5094907;28;20035;-79
2022/06/16 10:52:54;;;;;;;18.20;2.42;;;32.30;59.10;;;;;;5060430;28;20048;-81
2022/06/16 10:55:23;;;;;;;7.00;1.83;;;32.50;58.50;;;;;;5087946;28;20157;-81
2022/06/16 10:57:59;;;;;;;5.63;2.28;;;32.60;59.00;;;;;;5087635;28;20153;-81
2022/06/16 11:00:30;;;;;;;8.07;2.40;;;32.50;57.50;;;;;;5048726;28;20415;-81
2022/06/16 11:03:02;;;;;;;6.82;1.80;;;32.20;58.20;;;;;;5062602;28;20355;-82
2022/06/16 11:05:32;;;;;;;3.25;1.65;;;32.40;59.10;;;;;;5043233;28;20058;-82
2022/06/16 11:08:09;;;;;;;3.75;1.88;;;32.60;58.70;;;;;;5046780;28;20052;-82
2022/06/16 11:10:39;;;;;;;4.15;2.05;;;32.50;57.20;;;;;;5060152;28;20114;-83
2022/06/16 11:13:06;;;;;;;4.63;1.77;;;32.20;56.70;;;;;;5055996;28;20076;-82
2022/06/16 11:15:39;;;;;;;3.13;1.70;;;32.00;57.90;;;;;;5055371;28;20048;-82
2022/06/16 11:18:12;;;;;;;6.32;2.15;;;32.10;58.00;;;;;;5061148;28;20052;-83
2022/06/16 11:20:43;;;;;;;7.90;2.38;;;32.20;57.90;;;;;;5068886;28;20095;-82
2022/06/16 11:23:26;;;;;;;12.80;2.90;;;32.30;58.10;;;;;;5052699;28;20137;-82
2022/06/16 11:25:59;;;;;;;11.77;2.75;;;32.20;56.60;;;;;;5070302;28;20048;-83
2022/06/16 11:28:27;;;;;;;4.88;1.83;;;32.40;58.60;;;;;;5068217;28;20086;-82
2022/06/16 11:30:59;;;;;;;6.40;1.90;;;32.30;58.00;;;;;;5050056;28;20044;-82
2022/06/16 11:36:23;;;;;;;4.07;2.20;;;32.20;58.10;;;;;;5049947;28;20485;-82
2022/06/16 11:38:57;;;;;;;10.95;2.45;;;32.30;57.10;;;;;;5052194;28;20048;-82
2022/06/16 11:41:27;;;;;;;7.50;2.15;;;32.50;57.70;;;;;;5050172;28;20575;-79
2022/06/16 11:44:08;;;;;;;8.32;2.20;;;32.40;57.20;;;;;;5051219;28;20049;-80
2022/06/16 11:46:42;;;;;;;4.55;1.60;;;32.70;57.30;;;;;;5052392;28;20072;-80
2022/06/16 11:49:22;;;;;;;7.75;1.85;;;32.90;55.70;;;;;;5051131;28;20052;-80
2022/06/16 11:52:03;;;;;;;4.88;1.88;;;33.00;55.60;;;;;;5052162;28;20040;-81
2022/06/16 11:54:42;;;;;;;8.98;2.00;;;32.90;56.60;;;;;;5052163;28;20484;-81
2022/06/16 11:57:17;;;;;;;6.53;2.13;;;32.70;56.60;;;;;;5052822;28;20048;-81
2022/06/16 12:00:04;;;;;;;3.85;1.90;;;32.70;56.50;;;;;;5074382;28;20569;-82
2022/06/16 12:03:02;;;;;;;3.25;1.75;;;32.90;56.70;;;;;;5074015;28;20037;-80
2022/06/16 12:05:36;;;;;;;4.85;1.85;;;32.90;57.10;;;;;;5055147;28;20056;-81
2022/06/16 12:08:16;;;;;;;6.00;2.00;;;33.20;57.20;;;;;;5072771;28;20097;-80
2022/06/16 12:10:48;;;;;;;7.68;2.20;;;33.40;56.50;;;;;;5073160;28;20060;-81
2022/06/16 12:13:24;;;;;;;3.88;1.90;;;33.50;56.50;;;;;;5074489;28;20439;-80
2022/06/16 12:15:56;;;;;;;6.22;2.05;;;32.90;55.40;;;;;;5073672;28;20542;-80
2022/06/16 12:18:43;;;;;;;17.13;3.25;;;32.90;55.50;;;;;;5072930;28;20052;-82
2022/06/16 12:21:18;;;;;;;3.60;1.75;;;33.10;55.60;;;;;;5073150;28;20040;-80
2022/06/16 12:23:55;;;;;;;5.32;2.00;;;33.00;55.70;;;;;;5055400;28;20102;-81
2022/06/16 12:26:25;;;;;;;7.53;2.00;;;32.60;55.80;;;;;;5055379;28;20059;-80
2022/06/16 12:29:05;;;;;;;22.73;3.53;;;32.20;56.00;;;;;;5073001;28;20480;-80
2022/06/16 12:31:46;;;;;;;2.95;1.73;;;32.10;57.30;;;;;;5055888;28;20044;-79
2022/06/16 12:34:22;;;;;;;16.58;2.85;;;32.10;56.60;;;;;;5055224;28;20048;-79
2022/06/16 12:36:54;;;;;;;6.50;1.70;;;32.30;57.00;;;;;;5054906;28;20055;-80
2022/06/16 12:39:25;;;;;;;14.65;3.50;;;32.50;56.80;;;;;;5054431;28;20098;-79
2022/06/16 12:42:00;;;;;;;4.95;1.80;;;32.40;56.60;;;;;;5053096;28;20524;-81
2022/06/16 12:44:31;;;;;;;7.25;1.83;;;32.60;56.50;;;;;;5055169;28;20052;-81
2022/06/16 12:47:06;;;;;;;6.30;2.00;;;33.00;56.40;;;;;;5072763;28;20048;-80
2022/06/16 12:49:38;;;;;;;4.13;2.00;;;32.80;56.50;;;;;;5052625;28;20055;-80
2022/06/16 12:52:11;;;;;;;6.57;1.80;;;32.80;56.10;;;;;;5058201;28;20052;-81
2022/06/16 12:54:43;;;;;;;5.55;1.80;;;32.70;56.40;;;;;;5072566;28;20381;-81
2022/06/16 12:57:14;;;;;;;5.30;1.98;;;32.90;56.50;;;;;;5055581;28;20481;-81
2022/06/16 12:59:45;;;;;;;2.95;1.70;;;32.90;56.70;;;;;;5071511;28;20446;-82
2022/06/16 13:02:17;;;;;;;5.47;2.25;;;33.00;56.10;;;;;;5073667;28;20094;-81
2022/06/16 13:04:47;;;;;;;4.95;2.03;;;33.20;55.80;;;;;;5055581;28;20067;-81
2022/06/16 13:07:20;;;;;;;4.25;1.55;;;32.80;56.30;;;;;;5071702;28;20052;-80
2022/06/16 13:09:47;;;;;;;3.75;1.90;;;32.60;56.70;;;;;;5054061;28;20102;-81
2022/06/16 13:12:19;;;;;;;3.35;2.00;;;32.70;56.20;;;;;;5051823;28;20102;-80
2022/06/16 13:14:53;;;;;;;9.77;2.35;;;32.80;55.90;;;;;;5052125;28;20131;-81
2022/06/16 13:17:27;;;;;;;9.18;2.15;;;32.90;55.70;;;;;;5050295;28;20096;-81
2022/06/16 13:19:58;;;;;;;5.65;1.80;;;32.90;57.00;;;;;;5069782;28;20084;-80
2022/06/16 13:22:31;;;;;;;3.65;1.83;;;33.10;54.90;;;;;;5068802;28;20558;-81
2022/06/16 13:25:00;;;;;;;4.93;1.92;;;33.10;55.60;;;;;;5054424;28;20052;-80
2022/06/16 13:27:31;;;;;;;3.38;1.88;;;32.70;55.40;;;;;;5069967;28;20040;-81